Terminal Aerodrome Forecast
Issued by NWS

Home | Current Version | Previous Version | Text Only | Print | Product List | Glossary On
Versions: 1 2 3 4 5 6 7 8 9 10 11 12 13 14
000
FTUS44 KLZK 250500
TAFBPK
TAF
KBPK 250532Z 2506/2606 21004KT P6SM SCT250
      TEMPO 2509/2513 2SM BR
     FM251800 30005KT P6SM SCT250
     FM260000 13003KT P6SM SCT250=

USA.gov is the U.S. government's official web portal to all federal, state and local government web resources and services.